Latest Weather Observations for Borroloola

IDD60801

Issued at 8:01 am CST Friday 27 May 2016 (issued every 30 minutes, with the page automatically refreshed every 10 minutes)

About weather observations | Map of weather stations | Latest weather observations for NT | Other Formats
Station Details ID: 014723 Name: BORROLOOLA AIRPORT Lat: -16.08 Lon: 136.30 Height: 16.1 m
Data from the previous 72 hours. | See also: Recent months at Borroloola
Date/Time
CST
Temp
°C
App
Temp
°C
Dew
Point
Rel
Hum
%
Delta-T
°C
Wind Press
QNH
hPa
Press
MSL
hPa
Rain
since 9 am
mm
Dir
 
Spd
km/h
Gust
km/h
Spd
kts
Gust
kts
27/08:00am 24.6 27.9 21.9 85 1.8 ESE 7 9 4 5 1014.6 1014.5 0.0
27/07:30am 23.5 27.5 20.6 84 1.9 CALM 0 0 0 0 1014.3 1014.2 0.0
27/07:00am 22.8 26.5 20.0 84 1.8 CALM 0 6 0 3 1014.1 1014.0 0.0
27/06:30am 22.6 26.1 19.6 83 1.9 CALM 0 0 0 0 1013.9 1013.8 0.0
27/06:00am 21.9 25.1 18.9 83 1.9 CALM 0 0 0 0 1013.5 1013.4 0.0
27/05:30am 21.8 23.5 18.6 82 2.0 WSW 7 9 4 5 1013.3 1013.2 0.0
27/05:00am 21.7 24.7 18.5 82 2.0 CALM 0 0 0 0 1013.1 1013.0 0.0
27/04:30am 22.1 25.2 18.7 81 2.1 CALM 0 0 0 0 1012.9 1012.8 0.0
27/04:00am 22.3 25.5 18.9 81 2.1 CALM 0 0 0 0 1012.9 1012.8 0.0
27/03:30am 22.7 26.0 19.1 80 2.3 CALM 0 0 0 0 1012.9 1012.8 0.0
27/03:00am 23.4 27.0 19.8 80 2.3 CALM 0 0 0 0 1012.8 1012.7 0.0
27/02:30am 23.4 25.7 19.5 79 2.5 SSE 6 7 3 4 1013.1 1013.0 0.0
27/02:00am 23.5 27.0 19.6 79 2.5 CALM 0 0 0 0 1013.2 1013.1 0.0
27/01:30am 23.8 27.4 19.7 78 2.6 CALM 0 0 0 0 1013.4 1013.3 0.0
27/01:00am 23.7 26.8 19.4 77 2.8 E 2 6 1 3 1013.4 1013.3 0.0
27/12:30am 23.5 25.7 19.2 77 2.7 E 6 7 3 4 1013.4 1013.3 0.0
27/12:00am 23.6 26.9 19.1 76 2.9 CALM 0 0 0 0 1013.1 1013.0 0.0
 
Date/Time
CST
Temp
°C
App
Temp
°C
Dew
Point
Rel
Hum
%
Delta-T
°C
Wind Press
QNH
hPa
Press
MSL
hPa
Rain
since 9 am
mm
Dir
 
Spd
km/h
Gust
km/h
Spd
kts
Gust
kts
26/11:30pm 23.8 26.7 19.1 75 3.0 ENE 2 6 1 3 1013.2 1013.1 0.0
26/11:00pm 24.3 26.5 19.1 73 3.3 ENE 6 6 3 3 1013.2 1013.1 0.0
26/10:30pm 24.7 28.1 19.3 72 3.5 CALM 0 0 0 0 1013.2 1013.1 0.0
26/10:00pm 25.2 28.0 19.6 71 3.6 NNE 4 7 2 4 1013.2 1013.1 0.0
26/09:30pm 25.5 29.0 19.6 70 3.8 CALM 0 6 0 3 1013.2 1013.1 0.0
26/09:00pm 26.0 27.8 19.6 68 4.1 NNE 9 13 5 7 1013.1 1013.0 0.0
26/08:30pm 26.4 27.7 19.3 65 4.6 NE 11 17 6 9 1012.9 1012.8 0.0
26/08:00pm 26.9 27.5 18.7 60 5.2 NE 13 19 7 10 1012.6 1012.5 0.0
26/07:30pm 27.6 28.2 18.6 58 5.8 NNE 13 17 7 9 1012.2 1012.1 0.0
26/07:00pm 28.1 28.0 17.9 54 6.5 N 15 19 8 10 1011.5 1011.4 0.0
26/06:30pm 28.5 28.8 16.1 47 7.7 NNE 9 11 5 6 1011.0 1010.9 0.0
26/06:00pm 31.0 32.8 15.4 38 9.6 CALM 0 0 0 0 1010.6 1010.5 0.0
26/05:30pm 32.8 33.7 16.2 37 10.4 SSW 6 7 3 4 1010.5 1010.4 0.0
26/05:00pm 33.9 35.2 17.6 38 10.5 SSW 7 11 4 6 1010.4 1010.3 0.0
26/04:30pm 33.9 34.8 17.6 38 10.5 S 9 15 5 8 1010.4 1010.3 0.0
26/04:00pm 34.7 36.3 18.3 38 10.7 S 7 15 4 8 1010.2 1010.1 0.0
26/03:30pm 34.6 35.6 18.6 38 10.5 S 11 22 6 12 1010.2 1010.1 0.0
26/03:00pm 34.7 36.7 19.9 42 9.9 WSW 9 20 5 11 1010.5 1010.4 0.0
26/02:30pm 34.4 35.8 20.4 44 9.4 S 13 20 7 11 1010.7 1010.6 0.0
26/02:00pm 32.3 33.3 19.5 46 8.4 S 13 19 7 10 1011.3 1011.2 0.0
26/01:30pm 33.3 35.8 21.1 48 8.2 SSW 9 19 5 10 1011.7 1011.6 0.0
26/01:00pm 33.4 36.5 22.2 52 7.7 S 9 17 5 9 1012.1 1012.0 0.0
26/12:30pm 32.8 35.6 22.3 54 7.2 S 11 22 6 12 1012.7 1012.6 0.0
26/12:00pm 32.0 35.4 22.7 58 6.4 SW 9 19 5 10 1013.4 1013.3 0.0
26/11:30am 32.2 35.8 23.7 61 5.9 S 11 17 6 9 1013.8 1013.7 0.0
26/11:00am 31.2 35.2 23.8 64 5.1 SW 9 17 5 9 1014.3 1014.2 0.0
26/10:30am 30.1 34.5 23.8 69 4.4 SSW 7 13 4 7 1014.8 1014.7 0.0
26/10:00am 29.7 34.4 24.3 73 3.8 SW 7 13 4 7 1015.1 1015.0 0.0
26/09:30am 28.7 33.6 24.3 77 3.1 WSW 6 9 3 5 1015.2 1015.1 0.0
26/09:00am 27.4 32.2 24.1 82 2.3 S 6 9 3 5 1015.1 1015.0 0.0
26/08:30am 25.8 30.0 23.1 85 1.8 S 6 9 3 5 1014.7 1014.6 0.0
26/08:00am 23.6 27.8 20.9 85 1.8 CALM 0 2 0 1 1014.5 1014.4 0.0
26/07:30am 21.8 25.1 19.2 85 1.6 CALM 0 0 0 0 1014.3 1014.2 0.0
26/07:00am 21.6 23.4 18.8 84 1.8 SE 7 9 4 5 1014.0 1013.9 0.0
26/06:30am 21.2 23.0 18.4 84 1.7 WNW 6 7 3 4 1013.8 1013.7 0.0
26/06:00am 20.9 23.7 17.9 83 1.9 CALM 0 0 0 0 1013.4 1013.3 0.0
26/05:30am 20.7 23.4 17.7 83 1.8 CALM 0 0 0 0 1013.1 1013.0 0.0
26/05:00am 20.7 23.3 17.5 82 2.0 CALM 0 0 0 0 1013.0 1012.9 0.0
26/04:30am 20.6 23.2 17.4 82 2.0 CALM 0 0 0 0 1013.0 1012.9 0.0
26/04:00am 21.3 24.2 18.1 82 2.0 CALM 0 0 0 0 1012.8 1012.7 0.0
26/03:30am 21.2 23.9 17.8 81 2.1 CALM 0 0 0 0 1012.8 1012.7 0.0
26/03:00am 21.3 24.0 17.7 80 2.2 CALM 0 0 0 0 1012.8 1012.7 0.0
26/02:30am 21.4 24.0 17.6 79 2.3 CALM 0 0 0 0 1012.9 1012.8 0.0
26/02:00am 22.0 24.9 18.2 79 2.4 CALM 0 0 0 0 1013.0 1012.9 0.0
26/01:30am 21.6 23.8 17.4 77 2.6 S 2 9 1 5 1013.2 1013.1 0.0
26/01:00am 22.0 24.7 17.8 77 2.6 CALM 0 0 0 0 1013.2 1013.1 0.0
26/12:30am 22.2 24.9 17.8 76 2.7 CALM 0 0 0 0 1013.3 1013.2 0.0
26/12:00am 22.6 25.4 17.9 75 2.9 CALM 0 0 0 0 1013.5 1013.4 0.0
 
Date/Time
CST
Temp
°C
App
Temp
°C
Dew
Point
Rel
Hum
%
Delta-T
°C
Wind Press
QNH
hPa
Press
MSL
hPa
Rain
since 9 am
mm
Dir
 
Spd
km/h
Gust
km/h
Spd
kts
Gust
kts
25/11:30pm 23.1 26.0 18.2 74 3.1 CALM 0 0 0 0 1013.6 1013.5 0.0
25/11:00pm 23.3 26.2 18.2 73 3.2 CALM 0 6 0 3 1013.7 1013.6 0.0
25/10:30pm 24.1 26.1 18.7 72 3.4 NNW 6 7 3 4 1013.6 1013.5 0.0
25/10:00pm 24.5 26.5 18.7 70 3.7 N 6 7 3 4 1013.6 1013.5 0.0
25/09:30pm 24.6 26.4 18.3 68 4.0 N 6 9 3 5 1013.4 1013.3 0.0
25/09:00pm 25.2 27.0 18.4 66 4.3 NNE 6 7 3 4 1013.1 1013.0 0.0
25/08:30pm 25.7 26.5 18.1 63 4.8 NNE 11 17 6 9 1012.9 1012.8 0.0
25/08:00pm 26.1 27.2 18.0 61 5.1 NE 9 13 5 7 1012.4 1012.3 0.0
25/07:30pm 26.5 27.4 17.6 58 5.6 NNE 9 13 5 7 1011.9 1011.8 0.0
25/07:00pm 27.2 27.7 17.4 55 6.2 NNE 11 15 6 8 1011.4 1011.3 0.0
25/06:30pm 28.1 28.7 16.7 50 7.1 NE 9 15 5 8 1011.0 1010.9 0.0
25/06:00pm 29.9 32.3 17.0 45 8.1 CALM 0 0 0 0 1010.6 1010.5 0.0
25/05:30pm 31.6 33.4 18.2 44 8.6 ESE 6 9 3 5 1010.4 1010.3 0.0
25/05:00pm 32.1 33.1 18.7 45 8.7 SE 11 15 6 8 1010.1 1010.0 0.0
25/04:30pm 32.7 34.7 19.2 44 8.9 NE 7 11 4 6 1009.9 1009.8 0.0
25/04:00pm 32.5 34.9 19.7 46 8.4 NNE 6 9 3 5 1009.8 1009.7 0.0
25/03:30pm 31.3 32.7 18.6 46 8.2 SSE 9 13 5 7 1009.8 1009.7 0.0
25/03:00pm 33.5 35.7 20.3 46 8.8 NE 9 17 5 9 1009.9 1009.8 0.0
25/02:30pm 33.0 34.3 20.9 49 8.1 E 15 20 8 11 1010.3 1010.2 0.0
25/02:00pm 33.7 36.1 21.5 49 8.3 SE 11 17 6 9 1010.6 1010.5 0.0
25/01:30pm 32.7 34.9 21.2 50 7.8 E 11 17 6 9 1011.1 1011.0 0.0
25/01:00pm 32.4 34.8 21.6 53 7.3 ENE 11 20 6 11 1011.7 1011.6 0.0
25/12:30pm 32.8 35.5 22.9 56 6.8 ESE 13 20 7 11 1012.4 1012.3 0.0
25/12:00pm 30.4 32.5 20.9 57 6.3 E 11 20 6 11 1012.8 1012.7 0.0
25/11:30am 31.6 34.0 22.9 60 6.0 SE 15 22 8 12 1013.3 1013.2 0.0
25/11:00am 30.5 33.2 22.9 64 5.2 ESE 13 20 7 11 1013.6 1013.5 0.0
25/10:30am 29.2 32.1 22.4 66 4.6 ESE 11 19 6 10 1014.0 1013.9 0.0
25/10:00am 28.6 30.9 22.8 71 3.9 SE 15 22 8 12 1014.3 1014.2 0.0
25/09:30am 27.8 31.7 23.0 75 3.3 ESE 7 11 4 6 1014.4 1014.3 0.0
25/09:00am 26.1 29.2 22.2 79 2.6 SE 9 13 5 7 1014.4 1014.3 0.0
25/08:30am 24.2 26.7 21.1 83 2.0 SSE 9 13 5 7 1014.3 1014.2 0.0
25/08:00am 21.9 24.1 19.1 84 1.8 SSW 6 7 3 4 1014.3 1014.2 0.0
25/07:30am 20.5 22.0 17.7 84 1.7 SSW 6 7 3 4 1014.0 1013.9 0.0
25/07:00am 18.5 19.2 15.6 83 1.7 SSW 6 6 3 3 1013.8 1013.7 0.0
25/06:30am 18.4 20.2 15.5 83 1.7 CALM 0 0 0 0 1013.5 1013.4 0.0
25/06:00am 18.7 19.3 15.8 83 1.7 SSW 7 7 4 4 1013.3 1013.2 0.0
25/05:30am 18.8 20.7 15.7 82 1.8 CALM 0 0 0 0 1013.0 1012.9 0.0
25/05:00am 18.6 20.4 15.5 82 1.8 CALM 0 0 0 0 1012.9 1012.8 0.0
25/04:30am 18.7 20.5 15.4 81 1.9 CALM 0 0 0 0 1013.0 1012.9 0.0
25/04:00am 19.1 21.0 15.8 81 2.0 CALM 0 0 0 0 1013.1 1013.0 0.0
25/03:30am 19.3 21.3 16.0 81 2.0 CALM 0 0 0 0 1013.4 1013.3 0.0
25/03:00am 19.4 21.4 15.9 80 2.1 CALM 0 0 0 0 1013.4 1013.3 0.0
25/02:30am 19.7 21.7 16.0 79 2.2 CALM 0 0 0 0 1013.5 1013.4 0.0
25/02:00am 19.6 21.6 15.9 79 2.2 CALM 0 0 0 0 1013.5 1013.4 0.0
25/01:30am 20.1 22.1 16.1 78 2.4 CALM 0 0 0 0 1013.5 1013.4 0.0
25/01:00am 20.3 22.0 16.1 77 2.5 SSW 2 6 1 3 1013.7 1013.6 0.0
25/12:30am 20.2 20.8 15.8 76 2.6 SSW 7 7 4 4 1013.7 1013.6 0.0
25/12:00am 20.3 22.2 15.7 75 2.7 CALM 0 0 0 0 1013.8 1013.7 0.0
 
Date/Time
CST
Temp
°C
App
Temp
°C
Dew
Point
Rel
Hum
%
Delta-T
°C
Wind Press
QNH
hPa
Press
MSL
hPa
Rain
since 9 am
mm
Dir
 
Spd
km/h
Gust
km/h
Spd
kts
Gust
kts
24/11:30pm 20.5 22.4 15.7 74 2.9 CALM 0 0 0 0 1014.0 1013.9 0.0
24/11:00pm 21.1 23.1 16.1 73 3.0 CALM 0 0 0 0 1014.3 1014.2 0.0
24/10:30pm 21.6 23.7 16.3 72 3.2 CALM 0 0 0 0 1014.5 1014.4 0.0
24/10:00pm 22.0 24.2 16.5 71 3.3 CALM 0 0 0 0 1014.6 1014.5 0.0
24/09:30pm 22.5 24.8 16.8 70 3.5 CALM 0 0 0 0 1014.5 1014.4 0.0
24/09:00pm 23.0 25.3 16.8 68 3.8 CALM 0 0 0 0 1014.4 1014.3 0.0
24/08:30pm 23.8 25.2 17.3 67 4.0 ESE 6 9 3 5 1014.0 1013.9 0.0
24/08:00pm 24.5 25.5 17.7 66 4.3 ESE 9 13 5 7 1013.7 1013.6 0.0
24/07:30pm 25.0 25.2 17.7 64 4.6 ESE 13 19 7 10 1013.4 1013.3 0.0
24/07:00pm 25.5 25.8 17.9 63 4.8 ESE 13 20 7 11 1013.0 1012.9 0.0
24/06:30pm 26.3 26.3 18.2 61 5.1 ESE 15 22 8 12 1012.5 1012.4 0.0
24/06:00pm 27.0 27.1 18.3 59 5.5 ESE 15 20 8 11 1012.1 1012.0 0.0
24/05:30pm 28.3 28.7 19.0 57 6.0 ESE 15 20 8 11 1011.8 1011.7 0.0
24/05:00pm 28.9 29.8 19.2 55 6.3 ESE 13 19 7 10 1011.3 1011.2 0.0
24/04:30pm 29.8 31.1 20.1 56 6.4 ESE 13 17 7 9 1011.1 1011.0 0.0
24/04:00pm 30.7 32.1 20.3 53 6.9 SE 13 24 7 13 1010.9 1010.8 0.0
24/03:30pm 29.4 30.4 19.4 55 6.5 SE 13 17 7 9 1010.9 1010.8 0.0
24/03:00pm 30.4 31.8 20.3 54 6.7 SSE 13 20 7 11 1011.0 1010.9 0.0
24/02:30pm 31.3 33.5 21.8 57 6.4 SSW 13 24 7 13 1011.3 1011.2 0.0
24/02:00pm 30.2 32.3 21.0 58 6.1 SSE 11 22 6 12 1011.7 1011.6 0.0
24/01:30pm 30.0 32.7 21.4 60 5.8 SSE 9 19 5 10 1012.2 1012.1 0.0
24/01:00pm 29.8 31.8 21.5 61 5.6 SSW 13 20 7 11 1012.6 1012.5 0.0
24/12:30pm 28.8 30.6 21.1 63 5.1 S 13 20 7 11 1013.0 1012.9 0.0
24/12:00pm 28.7 30.5 21.2 64 5.0 SSE 13 20 7 11 1013.5 1013.4 0.0
24/11:30am 28.0 29.4 21.1 66 4.6 SE 15 20 8 11 1014.1 1014.0 0.0
24/11:00am 27.8 28.4 21.3 67 4.3 ESE 20 28 11 15 1014.4 1014.3 0.0
24/10:30am 28.3 29.4 22.3 70 4.1 SE 20 28 11 15 1014.6 1014.5 0.0
24/10:00am 27.0 27.7 21.5 72 3.7 SSE 20 26 11 14 1015.2 1015.1 0.0
24/09:30am 26.4 27.3 21.6 75 3.2 SE 19 22 10 12 1015.4 1015.3 0.0
24/09:00am 26.2 28.1 22.1 78 2.7 SE 15 20 8 11 1015.1 1015.0 0.0
24/08:30am 25.1 26.8 21.6 81 2.3 SSE 15 22 8 12 1014.9 1014.8 0.0

Other Formats:

Comma delimited format used in spreadsheet applications
http://www.bom.gov.au/fwo/IDD60801/IDD60801.94152.axf

JavaScript Object Notation format (JSON) in row-major order
http://www.bom.gov.au/fwo/IDD60801/IDD60801.94152.json